Location Norrisville, MD, US

ob CW6888 232300Z AUTO 17005G09KT 05/02 A3002 RMK SLPNO 

2019.01.23 2300 UTC
Wind from the S (168 degrees) at 6 MPH (5 KT) gusting to 10 MPH (9 KT)
Visibility    Mile(s)
Temperature 41.1 F (5 C)
Dew Point 35.4 F (2 C)
Relative Humidity 80%
Pressure   30.023 in. Hg (1017 hPa)
Rain  0.00 in.
Daily Rain 0.00 in.

Station Name  Sola Virtus Observatory
Longitude, Latitude  -76.5447, 39.7025
Elevation 738
Station URL http://sola-virtus-observatory.org
Software Type Cumulus v1.9.4